createdAt,value
2022-08-27T00:00:55.518Z,24.00
2022-08-27T00:02:28.337Z,23.90
2022-08-27T00:04:01.616Z,23.90
2022-08-27T00:05:35.079Z,23.90
2022-08-27T00:07:09.076Z,23.90
2022-08-27T00:08:42.907Z,23.90
2022-08-27T00:10:19.065Z,23.90
2022-08-27T00:11:51.833Z,23.90
2022-08-27T00:13:25.968Z,24.00
2022-08-27T00:15:00.376Z,23.90
2022-08-27T00:16:33.544Z,24.00
2022-08-27T00:18:07.296Z,23.90
2022-08-27T00:19:39.783Z,23.90
2022-08-27T00:21:13.316Z,23.90
2022-08-27T00:22:46.341Z,23.80
2022-08-27T00:24:19.193Z,23.90
2022-08-27T00:25:51.959Z,23.80
2022-08-27T00:27:24.819Z,23.80
2022-08-27T00:28:59.003Z,23.80
2022-08-27T00:30:31.873Z,23.80
2022-08-27T00:32:05.317Z,23.80
2022-08-27T00:33:38.155Z,23.80
2022-08-27T00:35:12.040Z,23.80
2022-08-27T00:36:45.256Z,23.80
2022-08-27T00:38:17.701Z,23.80
2022-08-27T00:39:50.619Z,23.80
2022-08-27T00:41:24.383Z,23.80
2022-08-27T00:42:57.146Z,23.80
2022-08-27T00:44:31.893Z,23.80
2022-08-27T00:46:12.386Z,23.80
2022-08-27T00:47:49.239Z,23.90
2022-08-27T00:49:25.652Z,23.90
2022-08-27T00:50:58.804Z,23.90
2022-08-27T00:52:34.371Z,23.80
2022-08-27T00:54:08.410Z,23.80
2022-08-27T00:55:46.710Z,23.80
2022-08-27T00:57:20.156Z,23.80
2022-08-27T00:58:54.811Z,23.80
2022-08-27T01:00:29.296Z,23.70
2022-08-27T01:02:20.531Z,23.80
2022-08-27T01:03:58.593Z,23.80
2022-08-27T01:05:31.180Z,23.70
2022-08-27T01:07:04.535Z,23.70
2022-08-27T01:08:41.642Z,23.80
2022-08-27T01:10:19.095Z,23.70
2022-08-27T01:11:53.007Z,23.80
2022-08-27T01:13:59.276Z,23.90
2022-08-27T01:15:21.045Z,23.80
2022-08-27T01:16:59.085Z,23.80
2022-08-27T01:18:35.575Z,23.80
2022-08-27T01:20:14.337Z,23.80
2022-08-27T01:21:54.486Z,23.80
2022-08-27T01:23:37.944Z,23.70
2022-08-27T01:25:15.196Z,23.70
2022-08-27T01:26:48.576Z,23.70
2022-08-27T01:28:24.161Z,23.60
2022-08-27T01:30:02.438Z,23.60
2022-08-27T01:31:35.213Z,23.60
2022-08-27T01:33:10.124Z,23.60
2022-08-27T01:34:45.908Z,23.70
2022-08-27T01:36:18.648Z,23.70
2022-08-27T01:37:54.182Z,23.70
2022-08-27T01:39:30.041Z,23.70
2022-08-27T01:41:04.923Z,23.70
2022-08-27T01:42:41.816Z,23.70
2022-08-27T01:47:00.636Z,23.70
2022-08-27T01:48:34.220Z,23.80
2022-08-27T01:50:10.479Z,23.80
2022-08-27T01:51:43.710Z,23.80
2022-08-27T01:53:18.842Z,23.80
2022-08-27T01:54:51.728Z,23.80
2022-08-27T01:56:25.980Z,23.80
2022-08-27T01:57:58.880Z,23.70
2022-08-27T01:59:39.331Z,23.70
2022-08-27T02:01:16.399Z,23.70
2022-08-27T02:02:49.997Z,23.70
2022-08-27T02:04:22.940Z,23.60
2022-08-27T02:05:56.025Z,23.60
2022-08-27T02:07:28.850Z,23.60
2022-08-27T02:09:01.701Z,23.60
2022-08-27T02:10:36.888Z,23.50
2022-08-27T02:12:11.422Z,23.60
2022-08-27T02:13:44.299Z,23.60
2022-08-27T02:15:16.820Z,23.60
2022-08-27T02:16:52.504Z,23.50
2022-08-27T02:18:26.096Z,23.50
2022-08-27T02:20:00.857Z,23.50
2022-08-27T02:21:32.797Z,23.50
2022-08-27T02:23:06.231Z,23.50
2022-08-27T02:24:40.427Z,23.50
2022-08-27T02:26:13.912Z,23.50
2022-08-27T02:27:49.944Z,23.50
2022-08-27T02:29:23.261Z,23.40
2022-08-27T02:30:56.267Z,23.40
2022-08-27T02:32:31.825Z,23.30
2022-08-27T02:34:05.786Z,23.20
2022-08-27T02:35:40.561Z,23.10
2022-08-27T02:37:14.270Z,23.20
2022-08-27T02:38:47.111Z,23.10
2022-08-27T02:40:22.118Z,23.00
2022-08-27T02:41:55.688Z,23.00
2022-08-27T02:43:29.999Z,23.00
2022-08-27T02:45:04.969Z,23.00
2022-08-27T02:46:38.690Z,23.00
2022-08-27T02:48:12.302Z,23.00
2022-08-27T02:49:45.375Z,23.00
2022-08-27T02:51:18.222Z,23.00
2022-08-27T02:52:52.383Z,23.00
2022-08-27T02:54:26.237Z,23.00
2022-08-27T02:55:59.549Z,22.90
2022-08-27T02:57:31.409Z,22.90
2022-08-27T02:59:10.670Z,22.90
2022-08-27T03:00:44.473Z,22.90
2022-08-27T03:02:17.731Z,22.90
2022-08-27T03:03:50.639Z,22.90
2022-08-27T03:05:23.544Z,22.80
2022-08-27T03:06:56.622Z,22.80
2022-08-27T03:08:30.371Z,22.70
2022-08-27T03:10:11.371Z,22.70
2022-08-27T03:11:44.153Z,22.70
2022-08-27T03:13:16.928Z,22.70
2022-08-27T03:14:51.225Z,22.70
2022-08-27T03:16:24.082Z,22.70
2022-08-27T03:18:14.327Z,22.70
2022-08-27T03:19:46.160Z,22.60
2022-08-27T03:21:21.374Z,22.60
2022-08-27T03:22:53.652Z,22.60
2022-08-27T03:24:26.448Z,22.60
2022-08-27T03:26:01.152Z,22.60
2022-08-27T03:27:33.937Z,22.60
2022-08-27T03:29:07.574Z,22.60
2022-08-27T03:30:45.885Z,22.50
2022-08-27T03:32:20.090Z,22.50
2022-08-27T03:33:53.616Z,22.50
2022-08-27T03:35:26.589Z,22.50
2022-08-27T03:37:00.271Z,22.40
2022-08-27T03:38:33.264Z,22.40
2022-08-27T03:40:07.953Z,22.50
2022-08-27T03:41:55.033Z,22.40
2022-08-27T03:43:28.857Z,22.40
2022-08-27T03:45:00.787Z,22.40
2022-08-27T03:46:34.897Z,22.40
2022-08-27T03:48:07.817Z,22.40
2022-08-27T03:49:40.709Z,22.40
2022-08-27T03:51:15.833Z,22.40
2022-08-27T03:52:49.466Z,22.40
2022-08-27T03:54:22.562Z,22.50
2022-08-27T03:55:55.378Z,22.50
2022-08-27T03:57:28.573Z,22.40
2022-08-27T03:59:01.343Z,22.50
2022-08-27T04:00:34.294Z,22.40
2022-08-27T04:02:08.454Z,22.40
2022-08-27T04:03:41.261Z,22.40
2022-08-27T04:05:15.303Z,22.40
2022-08-27T04:06:48.112Z,22.40
2022-08-27T04:08:21.586Z,22.40
2022-08-27T04:09:54.337Z,22.40
2022-08-27T04:11:27.615Z,22.40
2022-08-27T04:13:00.443Z,22.40
2022-08-27T04:14:33.878Z,22.30
2022-08-27T04:16:07.818Z,22.30
2022-08-27T04:17:41.570Z,22.30
2022-08-27T04:19:14.546Z,22.20
2022-08-27T04:20:52.354Z,22.20
2022-08-27T04:22:25.118Z,22.20
2022-08-27T04:23:57.962Z,22.30
2022-08-27T04:25:30.730Z,22.20
2022-08-27T04:27:04.390Z,22.30
2022-08-27T04:28:38.809Z,22.20
2022-08-27T04:30:15.542Z,22.20
2022-08-27T04:31:48.321Z,22.20
2022-08-27T04:33:22.445Z,22.20
2022-08-27T04:34:55.697Z,22.10
2022-08-27T04:36:28.604Z,22.20
2022-08-27T04:38:01.673Z,22.20
2022-08-27T04:39:34.879Z,22.20
2022-08-27T04:41:21.321Z,22.10
2022-08-27T04:42:54.095Z,22.20
2022-08-27T04:44:28.669Z,22.20
2022-08-27T04:46:01.742Z,22.20
2022-08-27T04:47:33.972Z,22.20
2022-08-27T04:49:11.859Z,22.30
2022-08-27T04:50:47.959Z,22.30
2022-08-27T04:52:21.142Z,22.40
2022-08-27T04:53:54.317Z,22.30
2022-08-27T04:55:27.804Z,22.30
2022-08-27T04:57:00.583Z,22.50
2022-08-27T04:58:32.395Z,22.40
2022-08-27T05:00:07.020Z,22.40
2022-08-27T05:01:40.824Z,22.40
2022-08-27T05:03:14.014Z,22.50
2022-08-27T05:04:48.742Z,22.50
2022-08-27T05:06:22.556Z,22.50
2022-08-27T05:07:55.351Z,22.60
2022-08-27T05:09:28.208Z,22.60
2022-08-27T05:11:00.567Z,22.60
2022-08-27T05:12:33.387Z,22.60
2022-08-27T05:14:07.550Z,22.70
2022-08-27T05:15:41.303Z,22.60
2022-08-27T05:17:14.092Z,22.60
2022-08-27T05:18:48.178Z,22.60
2022-08-27T05:20:24.088Z,22.60
2022-08-27T05:21:57.051Z,22.60
2022-08-27T05:23:28.958Z,22.60
2022-08-27T05:25:01.733Z,22.50
2022-08-27T05:26:36.507Z,22.50
2022-08-27T05:28:09.216Z,22.50
2022-08-27T05:29:42.247Z,22.60
2022-08-27T05:31:15.819Z,22.50
2022-08-27T05:32:48.762Z,22.60
2022-08-27T05:34:25.498Z,22.60
2022-08-27T05:36:01.765Z,22.60
2022-08-27T05:37:34.958Z,22.70
2022-08-27T05:39:08.138Z,22.60
2022-08-27T05:40:42.074Z,22.70
2022-08-27T05:42:14.877Z,22.70
2022-08-27T05:43:50.379Z,22.70
2022-08-27T05:45:24.205Z,22.70
2022-08-27T05:46:56.985Z,22.70
2022-08-27T05:48:29.809Z,22.80
2022-08-27T05:50:03.757Z,22.70
2022-08-27T05:51:40.419Z,22.80
2022-08-27T05:53:13.260Z,22.70
2022-08-27T05:54:46.046Z,22.70
2022-08-27T05:56:21.273Z,22.70
2022-08-27T05:57:54.044Z,22.70
2022-08-27T05:59:49.725Z,22.80
2022-08-27T06:01:23.657Z,22.80
2022-08-27T06:02:56.495Z,22.80
2022-08-27T06:04:29.342Z,22.90
2022-08-27T06:06:02.765Z,22.90
2022-08-27T06:07:36.924Z,22.80
2022-08-27T06:09:11.149Z,22.80
2022-08-27T06:10:44.123Z,22.80
2022-08-27T06:12:17.044Z,22.80
2022-08-27T06:13:50.123Z,22.90
2022-08-27T06:15:22.963Z,22.90
2022-08-27T06:16:55.346Z,23.00
2022-08-27T06:18:28.124Z,23.00
2022-08-27T06:20:00.928Z,23.00
2022-08-27T06:21:33.398Z,23.00
2022-08-27T06:23:07.592Z,23.00
2022-08-27T06:24:41.354Z,23.00
2022-08-27T06:26:15.294Z,23.10
2022-08-27T06:27:48.060Z,23.10
2022-08-27T06:29:21.407Z,23.10
2022-08-27T06:30:54.255Z,23.00
2022-08-27T06:32:27.101Z,23.10
2022-08-27T06:34:07.149Z,23.00
2022-08-27T06:35:40.456Z,23.00
2022-08-27T06:37:13.235Z,23.10
2022-08-27T06:38:47.819Z,23.00
2022-08-27T06:40:23.095Z,23.00
2022-08-27T06:41:55.932Z,23.00
2022-08-27T06:43:28.738Z,22.90
2022-08-27T06:45:01.497Z,22.90
2022-08-27T06:46:34.662Z,22.90
2022-08-27T06:48:07.655Z,22.90
2022-08-27T06:49:41.058Z,22.80
2022-08-27T06:51:16.530Z,22.80
2022-08-27T06:52:49.326Z,22.80
2022-08-27T06:54:23.500Z,22.80
2022-08-27T06:55:55.368Z,22.80
2022-08-27T06:57:28.482Z,22.80
2022-08-27T06:59:02.985Z,22.80
2022-08-27T07:00:36.284Z,22.80
2022-08-27T07:02:09.286Z,22.80
2022-08-27T07:03:43.489Z,22.80
2022-08-27T07:05:16.652Z,22.80
2022-08-27T07:06:50.088Z,22.80
2022-08-27T07:08:22.844Z,22.80
2022-08-27T07:09:57.129Z,22.80
2022-08-27T07:11:31.882Z,22.80
2022-08-27T07:13:05.164Z,22.70
2022-08-27T07:14:38.557Z,22.70
2022-08-27T07:16:13.756Z,22.60
2022-08-27T07:17:46.781Z,22.60
2022-08-27T07:19:19.767Z,22.60
2022-08-27T07:20:55.742Z,22.50
2022-08-27T07:22:29.594Z,22.50
2022-08-27T07:24:05.610Z,22.50
2022-08-27T07:25:42.254Z,22.50
2022-08-27T07:27:15.068Z,22.50
2022-08-27T07:28:50.179Z,22.60
2022-08-27T07:30:23.215Z,22.60
2022-08-27T07:31:56.018Z,22.60
2022-08-27T07:33:28.847Z,22.60
2022-08-27T07:35:01.737Z,22.70
2022-08-27T07:36:37.713Z,22.70
2022-08-27T07:38:11.596Z,22.70
2022-08-27T07:39:44.632Z,22.70
2022-08-27T07:41:20.060Z,22.60
2022-08-27T07:43:10.624Z,22.70
2022-08-27T07:44:42.516Z,22.70
2022-08-27T07:46:15.391Z,22.80
2022-08-27T07:47:48.384Z,22.80
2022-08-27T07:49:22.189Z,22.80
2022-08-27T07:50:55.417Z,22.80
2022-08-27T07:52:28.543Z,22.80
2022-08-27T07:54:01.293Z,22.90
2022-08-27T07:55:36.252Z,22.90
2022-08-27T07:57:10.780Z,22.90
2022-08-27T07:58:44.214Z,22.90
2022-08-27T08:00:17.206Z,22.80
2022-08-27T08:01:50.145Z,22.80
2022-08-27T08:03:23.001Z,22.80
2022-08-27T08:04:56.028Z,22.80
2022-08-27T08:06:28.907Z,22.80
2022-08-27T08:08:01.681Z,22.80
2022-08-27T08:09:34.629Z,22.80
2022-08-27T08:11:07.847Z,22.80
2022-08-27T08:12:43.306Z,22.80
2022-08-27T08:14:16.130Z,22.90
2022-08-27T08:15:49.618Z,22.90
2022-08-27T08:17:22.855Z,22.90
2022-08-27T08:18:54.934Z,23.00
2022-08-27T08:20:54.163Z,23.20
2022-08-27T08:22:20.939Z,23.00
2022-08-27T08:23:53.758Z,23.00
2022-08-27T08:25:26.720Z,23.10
2022-08-27T08:27:02.757Z,23.10
2022-08-27T08:28:39.921Z,23.10
2022-08-27T08:30:13.314Z,23.10
2022-08-27T08:31:49.807Z,23.10
2022-08-27T08:33:23.654Z,23.10
2022-08-27T08:34:56.517Z,23.10
2022-08-27T08:36:29.533Z,23.10
2022-08-27T08:38:02.348Z,23.10
2022-08-27T08:39:35.757Z,23.10
2022-08-27T08:41:31.819Z,23.10
2022-08-27T08:43:08.310Z,23.20
2022-08-27T08:44:44.978Z,23.20
2022-08-27T08:46:22.994Z,23.20
2022-08-27T08:48:01.592Z,23.20
2022-08-27T08:49:50.710Z,23.30
2022-08-27T08:51:31.307Z,23.30
2022-08-27T08:53:07.677Z,23.40
2022-08-27T08:54:40.517Z,23.40
2022-08-27T08:56:20.122Z,23.40
2022-08-27T08:58:04.211Z,23.40
2022-08-27T08:59:39.593Z,23.50
2022-08-27T09:01:17.074Z,23.50
2022-08-27T09:02:55.498Z,23.50
2022-08-27T09:04:29.297Z,23.60
2022-08-27T09:06:06.316Z,23.60
2022-08-27T09:07:47.613Z,23.60
2022-08-27T09:09:23.923Z,23.60
2022-08-27T09:11:05.633Z,23.70
2022-08-27T09:12:38.462Z,23.60
2022-08-27T09:14:27.159Z,23.60
2022-08-27T09:16:02.248Z,23.70
2022-08-27T09:17:36.777Z,23.80
2022-08-27T09:19:12.992Z,23.80
2022-08-27T09:20:51.070Z,23.80
2022-08-27T09:22:28.881Z,23.80
2022-08-27T09:24:08.658Z,23.80
2022-08-27T09:25:44.690Z,23.80
2022-08-27T09:27:17.637Z,23.80
2022-08-27T09:29:08.034Z,23.90
2022-08-27T09:30:43.933Z,24.00
2022-08-27T09:32:23.520Z,24.00
2022-08-27T09:33:57.844Z,24.00
2022-08-27T09:35:40.211Z,24.00
2022-08-27T09:37:16.584Z,24.10
2022-08-27T09:38:58.054Z,24.20
2022-08-27T09:40:33.979Z,24.30
2022-08-27T09:42:08.610Z,24.40
2022-08-27T09:43:43.763Z,24.40
2022-08-27T09:45:18.998Z,24.60
2022-08-27T09:46:57.843Z,24.60
2022-08-27T09:48:32.884Z,24.80
2022-08-27T09:50:10.074Z,24.80
2022-08-27T09:51:45.632Z,24.90
2022-08-27T09:53:21.405Z,25.00
2022-08-27T09:54:56.045Z,25.10
2022-08-27T09:56:31.454Z,25.20
2022-08-27T09:58:06.894Z,25.20
2022-08-27T09:59:44.246Z,25.20
2022-08-27T10:01:20.127Z,25.20
2022-08-27T10:02:54.986Z,25.20
2022-08-27T10:04:38.047Z,25.40
2022-08-27T10:06:33.126Z,25.20
2022-08-27T10:08:14.582Z,25.40
2022-08-27T10:09:51.976Z,25.50
2022-08-27T10:11:31.077Z,25.60
2022-08-27T10:13:10.599Z,25.70
2022-08-27T10:14:47.365Z,25.80
2022-08-27T10:16:35.896Z,25.90
2022-08-27T10:18:14.263Z,26.00
2022-08-27T10:20:03.917Z,26.20
2022-08-27T10:21:47.953Z,26.30
2022-08-27T10:23:30.086Z,26.40
2022-08-27T10:25:12.686Z,26.50
2022-08-27T10:26:53.237Z,26.70
2022-08-27T10:28:38.923Z,26.80
2022-08-27T10:30:15.032Z,26.90
2022-08-27T10:32:00.557Z,27.00
2022-08-27T10:33:44.645Z,27.10
2022-08-27T10:35:22.862Z,27.10
2022-08-27T10:37:09.922Z,27.00
2022-08-27T10:38:47.565Z,27.00
2022-08-27T10:40:28.912Z,27.00
2022-08-27T10:42:13.817Z,27.00
2022-08-27T10:44:06.645Z,27.00
2022-08-27T10:45:47.062Z,27.00
2022-08-27T10:47:30.670Z,27.00
2022-08-27T10:49:10.094Z,27.00
2022-08-27T10:50:51.076Z,27.00
2022-08-27T10:52:29.330Z,27.00
2022-08-27T10:54:09.977Z,26.90
2022-08-27T10:55:51.239Z,26.80
2022-08-27T10:57:53.211Z,26.80
2022-08-27T10:59:38.721Z,26.70
2022-08-27T11:01:20.623Z,26.50
2022-08-27T11:02:55.629Z,26.40
2022-08-27T11:04:33.580Z,26.30
2022-08-27T11:06:20.622Z,26.20
2022-08-27T11:08:00.932Z,26.10
2022-08-27T11:09:38.064Z,26.10
2022-08-27T11:12:03.157Z,26.10
2022-08-27T11:13:14.022Z,26.10
2022-08-27T11:14:52.366Z,26.10
2022-08-27T11:16:30.200Z,26.10
2022-08-27T11:18:07.429Z,26.00
2022-08-27T11:19:50.673Z,26.00
2022-08-27T11:21:34.607Z,26.00
2022-08-27T11:23:14.534Z,26.00
2022-08-27T11:24:55.399Z,25.90
2022-08-27T11:26:31.574Z,25.90
2022-08-27T11:28:06.039Z,25.80
2022-08-27T11:29:47.206Z,25.80
2022-08-27T11:31:26.533Z,25.80
2022-08-27T11:33:05.440Z,25.80
2022-08-27T11:34:48.854Z,25.80
2022-08-27T11:36:54.354Z,25.70
2022-08-27T11:38:45.680Z,25.70
2022-08-27T11:40:33.721Z,25.80
2022-08-27T11:42:11.173Z,25.80
2022-08-27T11:43:45.450Z,25.80
2022-08-27T11:45:21.429Z,25.80
2022-08-27T11:46:57.795Z,25.80
2022-08-27T11:48:33.345Z,25.90
2022-08-27T11:50:16.253Z,25.90
2022-08-27T11:51:58.376Z,25.90
2022-08-27T11:53:35.538Z,25.80
2022-08-27T11:55:30.470Z,25.80
2022-08-27T11:57:03.678Z,25.70
2022-08-27T11:58:52.256Z,25.60
2022-08-27T12:00:33.697Z,25.50
2022-08-27T12:02:21.781Z,25.50
2022-08-27T12:04:02.963Z,25.50
2022-08-27T12:05:40.338Z,25.50
2022-08-27T12:07:29.325Z,25.50
2022-08-27T12:09:16.874Z,25.60
2022-08-27T12:11:10.092Z,25.60
2022-08-27T12:12:53.288Z,25.70
2022-08-27T12:14:43.026Z,25.60
2022-08-27T12:16:28.798Z,25.70
2022-08-27T12:18:10.143Z,25.70
2022-08-27T12:19:52.552Z,25.70
2022-08-27T12:21:38.508Z,25.80
2022-08-27T12:23:42.637Z,25.80
2022-08-27T12:25:23.161Z,25.90
2022-08-27T12:26:58.716Z,26.00
2022-08-27T12:28:31.499Z,26.00
2022-08-27T12:30:19.564Z,26.20
2022-08-27T12:31:56.262Z,26.30
2022-08-27T12:33:32.934Z,26.40
2022-08-27T12:35:11.816Z,26.50
2022-08-27T12:36:48.772Z,26.50
2022-08-27T12:38:37.525Z,26.50
2022-08-27T12:40:20.640Z,26.70
2022-08-27T12:41:58.742Z,26.70
2022-08-27T12:43:33.754Z,26.80
2022-08-27T12:45:07.495Z,26.90
2022-08-27T12:46:47.798Z,27.00
2022-08-27T12:48:26.285Z,27.00
2022-08-27T12:50:01.600Z,27.10
2022-08-27T12:51:38.024Z,27.10
2022-08-27T12:53:21.401Z,27.00
2022-08-27T12:55:08.975Z,27.00
2022-08-27T12:57:02.499Z,26.90
2022-08-27T12:58:46.377Z,26.90
2022-08-27T13:00:24.141Z,26.80
2022-08-27T13:02:10.049Z,26.70
2022-08-27T13:03:46.359Z,26.70
2022-08-27T13:05:21.615Z,26.70
2022-08-27T13:06:54.609Z,26.70
2022-08-27T13:08:33.340Z,26.80
2022-08-27T13:10:13.154Z,26.80
2022-08-27T13:11:49.406Z,26.80
2022-08-27T13:13:26.102Z,26.90
2022-08-27T13:15:08.478Z,26.90
2022-08-27T13:16:47.414Z,26.90
2022-08-27T13:18:20.812Z,26.90
2022-08-27T13:20:02.003Z,26.80
2022-08-27T13:21:35.310Z,26.80
2022-08-27T13:23:18.429Z,26.80
2022-08-27T13:24:54.733Z,26.80
2022-08-27T13:26:31.518Z,26.90
2022-08-27T13:28:09.852Z,26.80
2022-08-27T13:29:44.961Z,26.80
2022-08-27T13:31:18.290Z,26.80
2022-08-27T13:32:52.034Z,26.80
2022-08-27T13:34:28.942Z,26.80
2022-08-27T13:36:04.175Z,26.80
2022-08-27T13:37:42.144Z,26.80
2022-08-27T13:39:15.037Z,26.70
2022-08-27T13:40:59.547Z,26.80
2022-08-27T13:42:32.457Z,26.90
2022-08-27T13:44:12.426Z,26.80
2022-08-27T13:45:51.496Z,26.80
2022-08-27T13:47:27.340Z,26.80
2022-08-27T13:49:01.118Z,26.80
2022-08-27T13:50:36.809Z,26.80
2022-08-27T13:52:22.353Z,26.80
2022-08-27T13:54:12.769Z,26.80
2022-08-27T13:55:48.924Z,26.80
2022-08-27T13:57:26.347Z,26.80
2022-08-27T13:59:09.422Z,26.80
2022-08-27T14:00:46.665Z,26.70
2022-08-27T14:02:27.734Z,26.70
2022-08-27T14:04:02.775Z,26.70
2022-08-27T14:05:36.906Z,26.60
2022-08-27T14:07:13.889Z,26.70
2022-08-27T14:08:45.733Z,26.70
2022-08-27T14:10:32.857Z,26.60
2022-08-27T14:12:09.378Z,26.60
2022-08-27T14:13:46.330Z,26.60
2022-08-27T14:15:23.292Z,26.50
2022-08-27T14:17:08.682Z,26.50
2022-08-27T14:18:59.140Z,26.40
2022-08-27T14:20:32.653Z,26.40
2022-08-27T14:22:06.106Z,26.40
2022-08-27T14:23:39.010Z,26.30
2022-08-27T14:25:15.177Z,26.30
2022-08-27T14:26:50.730Z,26.20
2022-08-27T14:28:23.308Z,26.20
2022-08-27T14:29:56.224Z,26.20
2022-08-27T14:31:29.109Z,26.10
2022-08-27T14:33:04.312Z,26.10
2022-08-27T14:34:37.627Z,26.00
2022-08-27T14:36:10.880Z,26.00
2022-08-27T14:37:45.175Z,26.00
2022-08-27T14:39:18.152Z,26.20
2022-08-27T14:40:54.710Z,26.20
2022-08-27T14:42:28.649Z,26.10
2022-08-27T14:44:02.137Z,26.20
2022-08-27T14:45:37.036Z,26.20
2022-08-27T14:47:10.820Z,26.20
2022-08-27T14:48:46.311Z,26.30
2022-08-27T14:50:24.988Z,26.20
2022-08-27T14:51:57.928Z,26.20
2022-08-27T14:53:29.824Z,26.20
2022-08-27T14:55:02.662Z,26.20
2022-08-27T14:56:35.456Z,26.20
2022-08-27T14:58:07.337Z,26.30
2022-08-27T14:59:40.334Z,26.20
2022-08-27T15:01:13.649Z,26.20
2022-08-27T15:02:48.758Z,26.30
2022-08-27T15:04:23.192Z,26.30
2022-08-27T15:05:57.051Z,26.20
2022-08-27T15:07:29.865Z,26.20
2022-08-27T15:09:02.653Z,26.20
2022-08-27T15:10:34.515Z,26.20
2022-08-27T15:12:08.099Z,26.30
2022-08-27T15:13:52.805Z,26.30
2022-08-27T15:15:25.872Z,26.20
2022-08-27T15:16:59.561Z,26.30
2022-08-27T15:18:32.605Z,26.30
2022-08-27T15:20:13.689Z,26.20
2022-08-27T15:21:54.153Z,26.20
2022-08-27T15:23:27.174Z,26.10
2022-08-27T15:25:00.658Z,26.00
2022-08-27T15:26:37.010Z,26.10
2022-08-27T15:28:09.995Z,26.00
2022-08-27T15:29:43.288Z,26.10
2022-08-27T15:31:16.217Z,26.10
2022-08-27T15:32:49.604Z,26.00
2022-08-27T15:34:22.940Z,26.00
2022-08-27T15:35:59.883Z,26.00
2022-08-27T15:37:36.829Z,26.00
2022-08-27T15:39:10.037Z,26.00
2022-08-27T15:40:42.981Z,26.00
2022-08-27T15:42:16.456Z,26.00
2022-08-27T15:43:49.407Z,26.00
2022-08-27T15:45:25.586Z,26.00
2022-08-27T15:47:00.289Z,26.00
2022-08-27T15:48:33.647Z,26.00
2022-08-27T15:50:07.895Z,25.90
2022-08-27T15:51:42.410Z,25.90
2022-08-27T15:53:15.384Z,25.90
2022-08-27T15:54:48.395Z,25.90
2022-08-27T15:56:21.209Z,26.00
2022-08-27T15:57:55.219Z,26.00
2022-08-27T15:59:28.443Z,26.00
2022-08-27T16:01:08.855Z,26.10
2022-08-27T16:02:43.846Z,26.10
2022-08-27T16:04:17.567Z,26.10
2022-08-27T16:05:50.321Z,26.10
2022-08-27T16:07:24.426Z,26.10
2022-08-27T16:08:57.524Z,26.00
2022-08-27T16:10:30.357Z,26.00
2022-08-27T16:12:02.145Z,26.00
2022-08-27T16:13:34.897Z,26.00
2022-08-27T16:15:09.541Z,26.00
2022-08-27T16:16:44.950Z,26.00
2022-08-27T16:18:19.153Z,26.00
2022-08-27T16:19:54.316Z,26.00
2022-08-27T16:21:27.491Z,26.00
2022-08-27T16:23:01.798Z,26.00
2022-08-27T16:24:35.484Z,26.00
2022-08-27T16:26:08.356Z,26.00
2022-08-27T16:27:41.230Z,26.00
2022-08-27T16:29:14.092Z,25.90
2022-08-27T16:30:47.251Z,25.90
2022-08-27T16:32:20.789Z,25.90
2022-08-27T16:33:56.246Z,25.90
2022-08-27T16:35:29.050Z,25.90
2022-08-27T16:37:01.807Z,25.80
2022-08-27T16:38:37.029Z,25.80
2022-08-27T16:40:10.922Z,25.80
2022-08-27T16:41:43.766Z,25.80
2022-08-27T16:43:20.957Z,25.80
2022-08-27T16:44:53.726Z,25.80
2022-08-27T16:46:26.516Z,25.80
2022-08-27T16:48:17.149Z,25.90
2022-08-27T16:50:07.805Z,25.80
2022-08-27T16:51:42.419Z,25.80
2022-08-27T16:53:18.261Z,25.80
2022-08-27T16:54:52.620Z,25.80
2022-08-27T16:56:28.602Z,25.70
2022-08-27T16:58:02.045Z,25.80
2022-08-27T16:59:34.829Z,25.80
2022-08-27T17:01:10.424Z,25.70
2022-08-27T17:02:44.615Z,25.60
2022-08-27T17:04:27.899Z,25.60
2022-08-27T17:06:03.385Z,25.60
2022-08-27T17:07:36.334Z,25.50
2022-08-27T17:09:12.202Z,25.50
2022-08-27T17:10:48.268Z,25.50
2022-08-27T17:12:22.604Z,25.50
2022-08-27T17:13:58.500Z,25.50
2022-08-27T17:15:31.585Z,25.60
2022-08-27T17:17:05.452Z,25.60
2022-08-27T17:18:38.353Z,25.60
2022-08-27T17:20:11.852Z,25.60
2022-08-27T17:21:45.516Z,25.60
2022-08-27T17:23:22.844Z,25.60
2022-08-27T17:24:55.801Z,25.60
2022-08-27T17:26:30.875Z,25.60
2022-08-27T17:28:04.088Z,25.50
2022-08-27T17:29:37.734Z,25.50
2022-08-27T17:31:12.092Z,25.40
2022-08-27T17:32:45.596Z,25.30
2022-08-27T17:34:22.019Z,25.30
2022-08-27T17:35:54.918Z,25.30
2022-08-27T17:37:28.043Z,25.30
2022-08-27T17:39:02.488Z,25.20
2022-08-27T17:40:35.408Z,25.20
2022-08-27T17:42:09.880Z,25.10
2022-08-27T17:43:43.437Z,25.10
2022-08-27T17:45:17.274Z,25.00
2022-08-27T17:46:50.934Z,25.00
2022-08-27T17:48:26.560Z,25.00
2022-08-27T17:49:59.598Z,25.00
2022-08-27T17:51:32.365Z,25.00
2022-08-27T17:53:05.358Z,24.90
2022-08-27T17:54:41.208Z,25.00
2022-08-27T17:56:14.099Z,24.90
2022-08-27T17:57:48.207Z,25.00
2022-08-27T17:59:21.828Z,25.00
2022-08-27T18:00:54.666Z,25.00
2022-08-27T18:02:32.947Z,25.00
2022-08-27T18:04:06.047Z,25.00
2022-08-27T18:05:38.824Z,25.00
2022-08-27T18:07:11.575Z,25.00
2022-08-27T18:08:44.333Z,25.00
2022-08-27T18:10:23.726Z,24.90
2022-08-27T18:11:56.605Z,24.90
2022-08-27T18:13:30.952Z,24.80
2022-08-27T18:15:07.449Z,24.90
2022-08-27T18:16:40.575Z,24.90
2022-08-27T18:18:14.287Z,24.90
2022-08-27T18:19:47.081Z,24.80
2022-08-27T18:21:25.620Z,24.80
2022-08-27T18:22:59.953Z,24.80
2022-08-27T18:24:32.772Z,24.80
2022-08-27T18:26:07.419Z,24.80
2022-08-27T18:27:45.093Z,24.80
2022-08-27T18:29:19.809Z,24.80
2022-08-27T18:30:52.633Z,24.80
2022-08-27T18:32:26.250Z,24.80
2022-08-27T18:33:59.633Z,24.80
2022-08-27T18:35:34.822Z,24.80
2022-08-27T18:37:07.598Z,24.80
2022-08-27T18:38:40.384Z,24.80
2022-08-27T18:40:13.552Z,24.80
2022-08-27T18:41:46.382Z,24.80
2022-08-27T18:43:21.062Z,24.80
2022-08-27T18:44:55.482Z,24.80
2022-08-27T18:46:28.459Z,24.80
2022-08-27T18:48:02.241Z,24.90
2022-08-27T18:49:35.094Z,24.80
2022-08-27T18:51:11.570Z,24.80
2022-08-27T18:52:43.422Z,24.70
2022-08-27T18:54:16.894Z,24.70
2022-08-27T18:55:50.312Z,24.70
2022-08-27T18:57:23.258Z,24.60
2022-08-27T18:58:55.986Z,24.70
2022-08-27T19:00:30.288Z,24.60
2022-08-27T19:02:03.166Z,24.60
2022-08-27T19:03:39.618Z,24.60
2022-08-27T19:05:13.451Z,24.60
2022-08-27T19:06:46.863Z,24.50
2022-08-27T19:08:21.952Z,24.50
2022-08-27T19:09:54.922Z,24.50
2022-08-27T19:11:27.691Z,24.50
2022-08-27T19:13:00.452Z,24.60
2022-08-27T19:14:33.452Z,24.60
2022-08-27T19:16:13.626Z,24.60
2022-08-27T19:17:50.242Z,24.50
2022-08-27T19:19:24.797Z,24.50
2022-08-27T19:20:57.689Z,24.60
2022-08-27T19:22:30.562Z,24.50
2022-08-27T19:24:04.231Z,24.50
2022-08-27T19:25:36.989Z,24.40
2022-08-27T19:27:09.753Z,24.50
2022-08-27T19:28:45.072Z,24.40
2022-08-27T19:30:18.496Z,24.40
2022-08-27T19:31:52.719Z,24.40
2022-08-27T19:33:25.510Z,24.30
2022-08-27T19:34:58.570Z,24.20
2022-08-27T19:36:32.314Z,24.20
2022-08-27T19:38:05.669Z,24.20
2022-08-27T19:39:41.541Z,24.20
2022-08-27T19:41:15.434Z,24.10
2022-08-27T19:42:48.419Z,24.10
2022-08-27T19:44:21.373Z,24.10
2022-08-27T19:45:54.755Z,24.00
2022-08-27T19:47:29.070Z,24.00
2022-08-27T19:49:00.997Z,24.00
2022-08-27T19:50:33.826Z,24.00
2022-08-27T19:52:08.587Z,24.00
2022-08-27T19:53:42.114Z,23.90
2022-08-27T19:55:15.158Z,23.90
2022-08-27T19:56:48.143Z,23.90
2022-08-27T19:58:21.272Z,23.90
2022-08-27T19:59:54.042Z,23.80
2022-08-27T20:01:27.406Z,23.70
2022-08-27T20:03:01.539Z,23.70
2022-08-27T20:04:42.199Z,23.70
2022-08-27T20:06:20.698Z,23.60
2022-08-27T20:07:56.123Z,23.60
2022-08-27T20:09:28.958Z,23.50
2022-08-27T20:11:01.936Z,23.50
2022-08-27T20:12:34.681Z,23.50
2022-08-27T20:14:07.484Z,23.40
2022-08-27T20:15:43.182Z,23.40
2022-08-27T20:17:19.211Z,23.20
2022-08-27T20:18:58.326Z,23.60
2022-08-27T20:20:33.863Z,23.10
2022-08-27T20:22:06.775Z,23.00
2022-08-27T20:23:39.529Z,23.00
2022-08-27T20:25:13.616Z,22.90
2022-08-27T20:26:46.950Z,22.90
2022-08-27T20:28:39.068Z,22.80
2022-08-27T20:30:15.253Z,22.70
2022-08-27T20:31:48.056Z,22.70
2022-08-27T20:33:20.852Z,22.60
2022-08-27T20:34:54.946Z,22.60
2022-08-27T20:36:31.569Z,22.60
2022-08-27T20:38:05.820Z,22.50